Time;durP1;ratioP1;P1;durP2;ratioP2;P2;SDS_P1;SDS_P2;PMS_P1;PMS_P2;Temp;Humidity;BMP_temperature;BMP_pressure;BME280_temperature;BME280_humidity;BME280_pressure;Samples;Min_cycle;Max_cycle;Signal;HPM_P1;HPM_P2
2021/12/12 00:01:28;;;;;;;1.42;0.60;;;;;;;;;;5096728;28;20467;-61
2021/12/12 00:04:04;;;;;;;1.63;0.65;;;;;;;;;;5096826;28;20248;-61
2021/12/12 00:06:32;;;;;;;1.48;0.45;;;;;;;;;;5096708;28;20054;-61
2021/12/12 00:09:05;;;;;;;1.65;0.80;;;;;;;;;;5095363;28;20032;-61
2021/12/12 00:11:32;;;;;;;3.45;0.80;;;;;;;;;;5093067;28;20030;-61
2021/12/12 00:14:08;;;;;;;1.25;0.50;;;;;;;;;;5091344;28;20028;-61
2021/12/12 00:16:34;;;;;;;2.72;0.82;;;;;;;;;;5100247;28;20078;-61
2021/12/12 00:19:00;;;;;;;3.53;1.10;;;;;;;;;;5100390;28;20060;-61
2021/12/12 00:21:27;;;;;;;4.55;1.40;;;;;;;;;;5099934;28;20508;-61
2021/12/12 00:23:54;;;;;;;2.70;1.20;;;;;;;;;;5098330;28;20475;-61
2021/12/12 00:26:20;;;;;;;2.20;0.82;;;;;;;;;;5097455;28;20316;-61
2021/12/12 00:28:46;;;;;;;3.03;1.02;;;;;;;;;;5099199;28;20123;-61
2021/12/12 00:31:14;;;;;;;2.63;1.00;;;;;;;;;;5100439;28;20028;-61
2021/12/12 00:33:41;;;;;;;3.92;0.95;;;;;;;;;;5099795;28;20051;-61
2021/12/12 00:36:08;;;;;;;1.15;0.40;;;;;;;;;;5100195;28;20458;-61
2021/12/12 00:38:35;;;;;;;1.92;0.80;;;;;;;;;;5095896;28;20051;-61
2021/12/12 00:41:04;;;;;;;1.58;0.47;;;;;;;;;;5110560;28;20028;-61
2021/12/12 00:43:33;;;;;;;1.50;0.70;;;;;;;;;;5099368;28;20465;-61
2021/12/12 00:46:01;;;;;;;2.33;0.80;;;;;;;;;;5099944;28;20194;-61
2021/12/12 00:48:28;;;;;;;1.30;0.63;;;;;;;;;;5098197;28;20103;-61
2021/12/12 00:50:54;;;;;;;1.75;0.60;;;;;;;;;;5096567;28;20027;-61
2021/12/12 00:53:22;;;;;;;3.03;0.70;;;;;;;;;;5094974;28;20028;-61
2021/12/12 00:55:49;;;;;;;0.60;0.60;;;;;;;;;;5098299;28;20024;-61
2021/12/12 00:58:16;;;;;;;2.08;1.10;;;;;;;;;;5099731;28;20072;-61
2021/12/12 01:00:49;;;;;;;1.88;0.60;;;;;;;;;;5099761;28;20039;-61
2021/12/12 01:03:16;;;;;;;4.10;1.05;;;;;;;;;;5099272;28;20028;-61
2021/12/12 01:05:42;;;;;;;1.20;0.40;;;;;;;;;;5094199;28;20204;-61
2021/12/12 01:08:10;;;;;;;2.17;0.73;;;;;;;;;;5094693;28;20048;-61
2021/12/12 01:10:41;;;;;;;0.77;0.40;;;;;;;;;;5097344;27;20031;-61
2021/12/12 01:13:07;;;;;;;2.95;0.85;;;;;;;;;;5097463;28;20055;-61
2021/12/12 01:15:33;;;;;;;2.92;1.13;;;;;;;;;;5097306;28;20115;-61
2021/12/12 01:18:04;;;;;;;2.13;0.70;;;;;;;;;;5095578;28;20095;-61
2021/12/12 01:20:31;;;;;;;1.65;0.60;;;;;;;;;;5094721;28;20027;-61
2021/12/12 01:22:59;;;;;;;2.15;0.57;;;;;;;;;;5098193;28;20020;-61
2021/12/12 01:25:28;;;;;;;2.83;0.50;;;;;;;;;;5099125;28;20038;-61
2021/12/12 01:27:54;;;;;;;2.45;0.70;;;;;;;;;;5099090;28;20111;-61
2021/12/12 01:30:21;;;;;;;2.83;1.02;;;;;;;;;;5095351;28;20020;-61
2021/12/12 01:32:48;;;;;;;1.00;0.50;;;;;;;;;;5095699;28;20031;-61
2021/12/12 01:35:17;;;;;;;1.00;0.50;;;;;;;;;;5097276;28;20356;-61
2021/12/12 01:38:50;;;;;;;1.38;0.68;;;;;;;;;;5097391;28;20479;-62
2021/12/12 01:40:38;;;;;;;0.95;0.40;;;;;;;;;;5099747;28;20028;-61
2021/12/12 01:43:25;;;;;;;0.68;0.30;;;;;;;;;;5098951;28;20024;-61
2021/12/12 01:45:54;;;;;;;2.73;0.73;;;;;;;;;;5098600;28;20012;-61
2021/12/12 01:48:36;;;;;;;2.42;0.70;;;;;;;;;;5098296;28;20370;-61
2021/12/12 01:51:05;;;;;;;0.85;0.30;;;;;;;;;;5097754;28;20077;-61
2021/12/12 01:53:32;;;;;;;2.70;0.90;;;;;;;;;;5094366;28;20412;-61
2021/12/12 01:56:04;;;;;;;5.80;1.88;;;;;;;;;;5097608;28;20125;-61
2021/12/12 01:58:31;;;;;;;4.93;1.80;;;;;;;;;;5095641;28;20499;-61
2021/12/12 02:00:59;;;;;;;4.07;1.33;;;;;;;;;;5098372;28;20016;-61
2021/12/12 02:03:27;;;;;;;3.80;1.23;;;;;;;;;;5097903;28;20110;-61
2021/12/12 02:05:54;;;;;;;3.08;1.05;;;;;;;;;;5096530;28;20073;-61
2021/12/12 02:08:21;;;;;;;2.78;1.00;;;;;;;;;;5094313;28;20055;-61
2021/12/12 02:10:49;;;;;;;1.50;0.77;;;;;;;;;;5094720;28;20027;-61
2021/12/12 02:13:15;;;;;;;;;;;;;;;;;;5098497;28;20364;-61
2021/12/12 02:15:45;;;;;;;3.78;0.75;;;;;;;;;;5097478;28;19953;-61
2021/12/12 02:18:14;;;;;;;2.25;0.65;;;;;;;;;;5098261;28;20532;-61
2021/12/12 02:20:47;;;;;;;1.17;0.60;;;;;;;;;;5094389;28;20177;-61
2021/12/12 02:36:45;;;;;;;4.93;1.30;;;;;;;;;;5097901;28;20035;-62
2021/12/12 02:39:15;;;;;;;1.65;0.77;;;;;;;;;;5098009;28;20068;-61
2021/12/12 02:41:43;;;;;;;1.85;0.80;;;;;;;;;;5094500;28;20016;-61
2021/12/12 02:44:09;;;;;;;0.80;0.30;;;;;;;;;;5095264;28;20031;-62
2021/12/12 02:46:37;;;;;;;1.17;0.70;;;;;;;;;;5097328;28;20077;-61
2021/12/12 02:49:22;;;;;;;3.90;1.33;;;;;;;;;;5094062;28;20058;-62
2021/12/12 02:51:48;;;;;;;1.67;0.68;;;;;;;;;;5097636;28;20451;-61
2021/12/12 02:54:15;;;;;;;2.55;1.00;;;;;;;;;;5097711;28;20477;-62
2021/12/12 02:56:43;;;;;;;1.70;0.55;;;;;;;;;;5093398;28;20049;-62
2021/12/12 02:59:09;;;;;;;;;;;;;;;;;;5095389;28;20055;-61
2021/12/12 03:01:38;;;;;;;3.00;1.02;;;;;;;;;;5097566;28;19912;-62
2021/12/12 03:04:05;;;;;;;2.45;0.85;;;;;;;;;;5097146;28;20016;-62
2021/12/12 03:06:32;;;;;;;3.55;1.42;;;;;;;;;;5096995;28;20103;-61
2021/12/12 03:09:00;;;;;;;1.33;0.65;;;;;;;;;;5095083;28;20035;-61
2021/12/12 03:11:27;;;;;;;4.43;1.67;;;;;;;;;;5093231;28;20059;-61
2021/12/12 03:13:54;;;;;;;3.78;1.48;;;;;;;;;;5095763;28;20455;-61
2021/12/12 03:16:21;;;;;;;6.10;1.15;;;;;;;;;;5097020;28;20028;-62
2021/12/12 03:18:47;;;;;;;1.95;0.88;;;;;;;;;;5097345;28;20028;-62
2021/12/12 03:21:16;;;;;;;3.83;1.70;;;;;;;;;;5097480;28;20032;-62
2021/12/12 03:23:42;;;;;;;;;;;;;;;;;;5094261;28;20032;-62
2021/12/12 03:26:10;;;;;;;2.05;0.82;;;;;;;;;;5094530;28;19911;-62
2021/12/12 03:28:38;;;;;;;0.95;0.60;;;;;;;;;;5093232;28;20039;-62
2021/12/12 03:31:06;;;;;;;0.85;0.40;;;;;;;;;;5097304;28;20104;-62
2021/12/12 03:33:33;;;;;;;6.10;1.13;;;;;;;;;;5101888;28;20020;-62
2021/12/12 03:36:00;;;;;;;2.00;0.93;;;;;;;;;;5108502;28;20023;-62
2021/12/12 03:38:28;;;;;;;2.50;0.98;;;;;;;;;;5093342;28;20032;-62
2021/12/12 03:40:56;;;;;;;2.95;1.27;;;;;;;;;;5095687;28;20047;-62
2021/12/12 03:43:22;;;;;;;2.60;1.23;;;;;;;;;;5096941;28;20422;-62
2021/12/12 03:45:48;;;;;;;1.85;1.02;;;;;;;;;;5097213;28;20035;-62
2021/12/12 03:48:17;;;;;;;4.90;1.58;;;;;;;;;;5097000;28;20072;-62
2021/12/12 03:50:44;;;;;;;2.85;1.25;;;;;;;;;;5096185;28;20032;-62
2021/12/12 03:53:11;;;;;;;3.47;1.55;;;;;;;;;;5098512;28;20073;-63
2021/12/12 03:55:37;;;;;;;3.90;1.33;;;;;;;;;;5102022;28;20507;-62
2021/12/12 03:58:04;;;;;;;4.43;1.50;;;;;;;;;;5100792;28;20035;-62
2021/12/12 04:00:37;;;;;;;4.55;1.30;;;;;;;;;;5104901;28;20027;-62
2021/12/12 04:03:03;;;;;;;3.17;1.10;;;;;;;;;;5111582;28;20039;-61
2021/12/12 04:05:29;;;;;;;2.88;1.13;;;;;;;;;;5096955;28;20023;-62
2021/12/12 04:07:55;;;;;;;4.85;1.38;;;;;;;;;;5095666;28;20058;-62
2021/12/12 04:10:23;;;;;;;4.28;1.85;;;;;;;;;;5100206;28;20361;-62
2021/12/12 04:12:50;;;;;;;4.30;1.40;;;;;;;;;;5097445;28;20032;-62
2021/12/12 04:15:16;;;;;;;3.13;1.40;;;;;;;;;;5100672;28;20016;-62
2021/12/12 04:17:43;;;;;;;4.03;1.60;;;;;;;;;;5096812;28;20051;-62
2021/12/12 04:20:29;;;;;;;5.22;2.28;;;;;;;;;;5098236;28;20382;-62
2021/12/12 04:22:55;;;;;;;3.40;1.35;;;;;;;;;;5094505;28;20062;-62
2021/12/12 04:25:22;;;;;;;6.18;1.90;;;;;;;;;;5099676;28;20446;-62
2021/12/12 04:27:49;;;;;;;3.40;1.55;;;;;;;;;;5099980;28;20036;-62
2021/12/12 04:30:16;;;;;;;4.30;1.35;;;;;;;;;;5099875;28;20024;-62
2021/12/12 04:32:43;;;;;;;4.57;1.75;;;;;;;;;;5096794;28;20035;-62
2021/12/12 04:35:13;;;;;;;3.85;1.50;;;;;;;;;;5098811;28;20371;-62
2021/12/12 04:37:40;;;;;;;2.97;0.90;;;;;;;;;;5096728;28;20032;-62
2021/12/12 04:40:08;;;;;;;3.92;1.50;;;;;;;;;;5098893;28;20016;-62
2021/12/12 04:42:36;;;;;;;2.15;0.82;;;;;;;;;;5100080;28;20415;-62
2021/12/12 04:45:21;;;;;;;5.43;1.40;;;;;;;;;;5096680;28;20427;-62
2021/12/12 04:50:54;;;;;;;6.00;1.40;;;;;;;;;;5096590;28;20088;-63
2021/12/12 04:53:26;;;;;;;3.42;1.27;;;;;;;;;;5095026;28;20536;-62
2021/12/12 04:55:57;;;;;;;4.28;1.60;;;;;;;;;;5098516;28;20559;-62
2021/12/12 04:58:28;;;;;;;1.45;0.80;;;;;;;;;;5099854;28;20028;-62
2021/12/12 05:01:18;;;;;;;3.05;1.40;;;;;;;;;;5099326;28;20024;-63
2021/12/12 05:03:47;;;;;;;5.13;2.10;;;;;;;;;;5091703;28;20028;-63
2021/12/12 05:06:21;;;;;;;7.15;2.08;;;;;;;;;;5098708;28;20023;-63
2021/12/12 05:08:53;;;;;;;5.65;2.08;;;;;;;;;;5096567;28;20081;-63
2021/12/12 05:11:29;;;;;;;5.15;1.52;;;;;;;;;;5097071;28;20361;-63
2021/12/12 05:13:57;;;;;;;6.43;1.67;;;;;;;;;;5098418;28;20421;-63
2021/12/12 05:16:26;;;;;;;3.45;1.88;;;;;;;;;;5099546;28;20024;-63
2021/12/12 05:19:01;;;;;;;4.18;1.38;;;;;;;;;;5098588;28;20032;-63
2021/12/12 05:21:28;;;;;;;4.95;1.50;;;;;;;;;;5099296;28;20043;-63
2021/12/12 05:23:57;;;;;;;4.35;1.30;;;;;;;;;;5095673;28;20024;-63
2021/12/12 05:26:26;;;;;;;4.57;1.45;;;;;;;;;;5094736;28;20460;-63
2021/12/12 05:29:05;;;;;;;3.25;1.25;;;;;;;;;;5097359;28;20093;-63
2021/12/12 05:31:32;;;;;;;4.68;1.38;;;;;;;;;;5095087;28;20103;-63
2021/12/12 05:33:59;;;;;;;2.20;0.90;;;;;;;;;;5098868;28;20027;-63
2021/12/12 05:36:25;;;;;;;3.55;1.08;;;;;;;;;;5099239;28;20031;-63
2021/12/12 05:38:52;;;;;;;3.47;1.20;;;;;;;;;;5095989;28;20015;-63
2021/12/12 05:41:20;;;;;;;3.92;1.15;;;;;;;;;;5096178;28;20027;-63
2021/12/12 05:43:47;;;;;;;3.45;1.45;;;;;;;;;;5097144;28;20044;-63
2021/12/12 05:46:15;;;;;;;5.47;1.98;;;;;;;;;;5098574;28;20028;-63
2021/12/12 05:48:43;;;;;;;6.20;1.98;;;;;;;;;;5098427;28;20032;-63
2021/12/12 05:51:10;;;;;;;4.20;1.70;;;;;;;;;;5098314;28;20023;-63
2021/12/12 05:53:36;;;;;;;10.45;2.42;;;;;;;;;;5093069;28;20032;-63
2021/12/12 05:56:02;;;;;;;4.50;1.80;;;;;;;;;;5109285;28;20451;-63
2021/12/12 05:58:30;;;;;;;5.88;2.05;;;;;;;;;;5098298;28;20028;-63
2021/12/12 06:00:57;;;;;;;6.60;1.67;;;;;;;;;;5097863;28;20020;-63
2021/12/12 06:03:25;;;;;;;5.97;1.83;;;;;;;;;;5094543;28;20032;-63
2021/12/12 06:05:52;;;;;;;4.13;1.25;;;;;;;;;;5094785;28;20022;-63
2021/12/12 06:08:19;;;;;;;2.90;1.30;;;;;;;;;;5093245;28;20079;-63
2021/12/12 06:10:46;;;;;;;6.60;2.03;;;;;;;;;;5110232;28;20028;-63
2021/12/12 06:13:13;;;;;;;4.90;1.50;;;;;;;;;;5099732;28;20391;-63
2021/12/12 06:15:41;;;;;;;6.47;1.52;;;;;;;;;;5097467;28;20024;-62
2021/12/12 06:18:07;;;;;;;6.70;1.50;;;;;;;;;;5098094;28;20122;-63
2021/12/12 06:20:33;;;;;;;3.50;0.80;;;;;;;;;;5093432;28;20024;-70
2021/12/12 06:23:00;;;;;;;4.07;1.15;;;;;;;;;;5096198;28;20028;-63
2021/12/12 06:25:26;;;;;;;3.88;1.25;;;;;;;;;;5097643;28;20024;-65
2021/12/12 06:27:53;;;;;;;3.92;1.10;;;;;;;;;;5097353;28;20472;-64
2021/12/12 06:30:20;;;;;;;5.20;1.58;;;;;;;;;;5097645;28;20523;-63
2021/12/12 06:32:46;;;;;;;8.55;2.00;;;;;;;;;;5094697;28;20040;-63
2021/12/12 06:35:13;;;;;;;4.50;1.30;;;;;;;;;;5094800;28;20028;-64
2021/12/12 06:37:41;;;;;;;6.35;1.48;;;;;;;;;;5096804;28;20032;-63
2021/12/12 06:40:08;;;;;;;3.97;1.23;;;;;;;;;;5097521;28;20016;-63
2021/12/12 06:42:34;;;;;;;0.65;0.30;;;;;;;;;;5094051;28;20059;-63
2021/12/12 06:45:00;;;;;;;2.20;0.60;;;;;;;;;;5095934;28;20386;-62
2021/12/12 06:47:27;;;;;;;5.63;1.70;;;;;;;;;;5093677;28;20050;-63
2021/12/12 06:49:53;;;;;;;3.22;1.27;;;;;;;;;;5092452;28;20051;-63
2021/12/12 06:52:19;;;;;;;3.90;1.65;;;;;;;;;;5100008;28;20026;-63
2021/12/12 06:54:46;;;;;;;3.53;1.23;;;;;;;;;;5101003;28;20035;-64
2021/12/12 06:57:14;;;;;;;4.25;1.45;;;;;;;;;;5101324;28;20031;-63
2021/12/12 06:59:41;;;;;;;6.55;1.10;;;;;;;;;;5103545;28;20527;-65
2021/12/12 07:02:08;;;;;;;5.00;1.20;;;;;;;;;;5103753;28;20042;-64
2021/12/12 07:04:35;;;;;;;2.28;0.85;;;;;;;;;;5086806;28;20023;-64
2021/12/12 07:07:03;;;;;;;3.95;1.13;;;;;;;;;;5094793;28;20079;-64
2021/12/12 07:09:33;;;;;;;8.10;1.50;;;;;;;;;;5099479;28;20546;-64
2021/12/12 07:12:02;;;;;;;6.60;1.50;;;;;;;;;;5100384;28;20016;-63
2021/12/12 07:14:30;;;;;;;7.55;1.40;;;;;;;;;;5096634;28;20030;-64
2021/12/12 07:16:56;;;;;;;3.47;1.70;;;;;;;;;;5093725;28;20374;-64
2021/12/12 07:19:22;;;;;;;4.75;2.13;;;;;;;;;;5097546;28;20021;-64
2021/12/12 07:21:49;;;;;;;6.30;1.83;;;;;;;;;;5093540;28;20024;-64
2021/12/12 07:24:17;;;;;;;3.15;1.67;;;;;;;;;;5100403;28;20024;-64
2021/12/12 07:26:43;;;;;;;5.22;1.85;;;;;;;;;;5102137;28;20154;-64
2021/12/12 07:29:09;;;;;;;3.08;1.30;;;;;;;;;;5104096;28;20046;-64
2021/12/12 07:31:36;;;;;;;3.15;1.40;;;;;;;;;;5105844;28;20506;-64
2021/12/12 07:34:05;;;;;;;5.85;1.55;;;;;;;;;;5101685;28;20467;-64
2021/12/12 07:36:31;;;;;;;;;;;;;;;;;;5102947;28;20042;-64
2021/12/12 07:38:58;;;;;;;5.75;2.25;;;;;;;;;;5104672;28;19907;-64
2021/12/12 07:41:26;;;;;;;4.65;2.17;;;;;;;;;;5098042;28;20035;-64
2021/12/12 07:43:53;;;;;;;4.30;1.95;;;;;;;;;;5100966;28;20021;-63
2021/12/12 07:46:19;;;;;;;7.70;2.45;;;;;;;;;;5097538;28;20461;-64
2021/12/12 07:48:46;;;;;;;3.05;1.25;;;;;;;;;;5094876;28;20505;-64
2021/12/12 07:51:13;;;;;;;2.92;1.60;;;;;;;;;;5099145;28;20155;-64
2021/12/12 07:53:39;;;;;;;3.47;1.17;;;;;;;;;;5099911;28;20039;-64
2021/12/12 07:56:05;;;;;;;5.25;1.73;;;;;;;;;;5099356;28;20087;-63
2021/12/12 07:58:32;;;;;;;2.78;1.30;;;;;;;;;;5100856;28;20024;-64
2021/12/12 08:00:59;;;;;;;7.10;2.10;;;;;;;;;;5104963;28;20059;-64
2021/12/12 08:03:27;;;;;;;5.70;2.13;;;;;;;;;;5107956;28;20035;-65
2021/12/12 08:05:54;;;;;;;5.00;1.77;;;;;;;;;;5099460;28;20023;-64
2021/12/12 08:08:20;;;;;;;3.10;1.52;;;;;;;;;;5096632;28;20134;-64
2021/12/12 08:10:46;;;;;;;4.88;1.83;;;;;;;;;;5097732;28;20024;-64
2021/12/12 08:13:13;;;;;;;5.25;2.22;;;;;;;;;;5099141;28;20078;-64
2021/12/12 08:15:39;;;;;;;4.75;2.20;;;;;;;;;;5099923;28;20028;-64
2021/12/12 08:18:07;;;;;;;6.07;2.65;;;;;;;;;;5108693;28;20046;-64
2021/12/12 08:20:34;;;;;;;7.82;3.35;;;;;;;;;;5095530;28;20027;-64
2021/12/12 08:23:00;;;;;;;16.00;6.50;;;;;;;;;;5099380;28;20105;-64
2021/12/12 08:25:27;;;;;;;11.95;5.20;;;;;;;;;;5099418;28;20039;-66
2021/12/12 08:27:54;;;;;;;34.50;14.10;;;;;;;;;;5100356;28;20059;-64
2021/12/12 08:30:20;;;;;;;20.98;9.00;;;;;;;;;;5097474;28;20023;-65
2021/12/12 08:32:47;;;;;;;24.33;10.13;;;;;;;;;;5095288;28;20117;-63
2021/12/12 08:35:14;;;;;;;31.23;16.17;;;;;;;;;;5109347;28;20023;-68
2021/12/12 08:37:41;;;;;;;24.73;12.27;;;;;;;;;;5109150;28;20035;-63
2021/12/12 08:40:07;;;;;;;16.63;7.20;;;;;;;;;;5101956;28;20368;-64
2021/12/12 08:42:34;;;;;;;17.95;8.43;;;;;;;;;;5099301;28;20034;-63
2021/12/12 08:45:00;;;;;;;15.20;6.50;;;;;;;;;;5098550;28;20467;-63
2021/12/12 08:47:27;;;;;;;12.50;5.47;;;;;;;;;;5093683;28;20122;-62
2021/12/12 08:49:54;;;;;;;21.40;9.63;;;;;;;;;;5098646;28;20031;-63
2021/12/12 08:52:22;;;;;;;16.08;7.43;;;;;;;;;;5098255;28;20024;-58
2021/12/12 08:54:50;;;;;;;25.55;10.68;;;;;;;;;;5102671;28;20012;-59
2021/12/12 08:57:23;;;;;;;16.58;8.57;;;;;;;;;;5098099;28;20024;-58
2021/12/12 08:59:52;;;;;;;12.10;4.80;;;;;;;;;;5096533;28;20031;-59
2021/12/12 09:02:19;;;;;;;14.90;6.20;;;;;;;;;;5095346;28;20024;-58
2021/12/12 09:04:48;;;;;;;24.85;10.65;;;;;;;;;;5095858;28;20032;-59
2021/12/12 09:07:27;;;;;;;19.88;9.07;;;;;;;;;;5096936;28;20666;-58
2021/12/12 09:09:59;;;;;;;11.63;4.72;;;;;;;;;;5092539;28;20042;-58
2021/12/12 09:12:27;;;;;;;8.57;3.35;;;;;;;;;;5098708;28;20486;-59
2021/12/12 09:14:57;;;;;;;8.90;3.58;;;;;;;;;;5096858;28;20051;-58
2021/12/12 09:17:31;;;;;;;9.88;3.28;;;;;;;;;;5093489;28;20463;-57
2021/12/12 09:19:57;;;;;;;13.40;5.65;;;;;;;;;;5108174;28;20040;-59
2021/12/12 09:22:29;;;;;;;10.70;4.20;;;;;;;;;;5098715;28;20031;-58
2021/12/12 09:25:04;;;;;;;10.60;3.83;;;;;;;;;;5094992;28;20020;-58
2021/12/12 09:27:33;;;;;;;8.65;3.25;;;;;;;;;;5091193;28;20035;-59
2021/12/12 09:30:03;;;;;;;7.05;3.10;;;;;;;;;;5095874;28;20466;-57
2021/12/12 09:32:35;;;;;;;8.05;2.97;;;;;;;;;;5094543;28;20040;-58
2021/12/12 09:35:01;;;;;;;7.85;3.28;;;;;;;;;;5108295;28;20028;-58
2021/12/12 09:37:35;;;;;;;12.68;4.00;;;;;;;;;;5098532;28;20058;-58
2021/12/12 09:40:07;;;;;;;8.82;3.92;;;;;;;;;;5094802;28;20521;-59
2021/12/12 09:42:54;;;;;;;9.52;4.25;;;;;;;;;;5099439;28;20055;-58
2021/12/12 09:45:38;;;;;;;9.27;3.70;;;;;;;;;;5109732;28;20031;-58
2021/12/12 09:51:15;;;;;;;9.07;3.55;;;;;;;;;;5095183;28;20019;-59
2021/12/12 09:53:47;;;;;;;5.40;2.40;;;;;;;;;;5094469;28;20039;-58
2021/12/12 09:56:29;;;;;;;6.20;2.70;;;;;;;;;;5095363;28;20027;-58
2021/12/12 09:59:07;;;;;;;5.75;1.90;;;;;;;;;;5096491;28;20093;-58
2021/12/12 10:01:37;;;;;;;5.55;2.47;;;;;;;;;;5095140;28;20530;-58
2021/12/12 10:04:09;;;;;;;5.40;2.25;;;;;;;;;;5098573;28;20149;-58
2021/12/12 10:06:45;;;;;;;9.43;2.78;;;;;;;;;;5096822;28;20044;-58
2021/12/12 10:09:14;;;;;;;7.35;2.75;;;;;;;;;;5097209;28;20037;-58
2021/12/12 10:11:40;;;;;;;9.15;2.83;;;;;;;;;;5092670;28;20020;-59
2021/12/12 10:14:27;;;;;;;6.97;2.65;;;;;;;;;;5091783;28;20046;-59
2021/12/12 10:16:59;;;;;;;8.88;2.45;;;;;;;;;;5091755;28;20036;-59
2021/12/12 10:19:37;;;;;;;4.68;2.20;;;;;;;;;;5097518;28;20540;-60
2021/12/12 10:22:13;;;;;;;4.93;2.22;;;;;;;;;;5097638;28;20118;-59
2021/12/12 10:24:48;;;;;;;3.70;1.70;;;;;;;;;;5098060;28;20513;-60
2021/12/12 10:27:14;;;;;;;4.05;1.73;;;;;;;;;;5096484;28;20574;-58
2021/12/12 10:30:02;;;;;;;4.63;1.65;;;;;;;;;;5092214;28;20047;-59
2021/12/12 10:32:32;;;;;;;3.80;1.58;;;;;;;;;;5069288;28;20503;-60
2021/12/12 10:35:01;;;;;;;4.40;1.73;;;;;;;;;;5095554;28;20024;-57
2021/12/12 10:37:44;;;;;;;2.95;1.60;;;;;;;;;;5095995;28;20328;-58
2021/12/12 10:40:14;;;;;;;4.43;1.33;;;;;;;;;;5096615;28;20028;-58
2021/12/12 10:42:45;;;;;;;5.50;1.77;;;;;;;;;;5093434;28;20477;-59
2021/12/12 10:45:15;;;;;;;4.30;1.42;;;;;;;;;;5097472;28;20124;-57
2021/12/12 10:47:54;;;;;;;2.45;1.30;;;;;;;;;;5092954;28;20080;-56
2021/12/12 10:50:20;;;;;;;4.80;1.48;;;;;;;;;;5095095;28;20020;-58
2021/12/12 10:52:49;;;;;;;3.30;1.33;;;;;;;;;;5095745;28;20031;-58
2021/12/12 10:55:21;;;;;;;3.35;1.30;;;;;;;;;;5096952;28;20039;-57
2021/12/12 10:57:55;;;;;;;2.80;1.23;;;;;;;;;;5097012;28;20032;-58
2021/12/12 11:00:23;;;;;;;2.33;1.00;;;;;;;;;;5109493;28;20089;-59
2021/12/12 11:03:03;;;;;;;1.83;1.00;;;;;;;;;;5107790;28;20479;-59
2021/12/12 11:05:32;;;;;;;2.30;1.00;;;;;;;;;;5107906;28;20529;-58
2021/12/12 11:08:07;;;;;;;3.03;1.40;;;;;;;;;;5094815;28;20040;-58
2021/12/12 11:10:35;;;;;;;7.75;2.78;;;;;;;;;;5094646;28;20090;-58
2021/12/12 11:13:04;;;;;;;9.80;3.15;;;;;;;;;;5095117;28;20441;-57
2021/12/12 11:15:33;;;;;;;9.52;2.28;;;;;;;;;;5102988;28;20024;-57
2021/12/12 11:18:05;;;;;;;3.47;1.10;;;;;;;;;;5095344;28;20176;-58
2021/12/12 11:20:44;;;;;;;3.65;1.10;;;;;;;;;;5108572;28;20374;-58
2021/12/12 11:23:27;;;;;;;1.67;0.50;;;;;;;;;;5107361;28;20024;-57
2021/12/12 11:25:56;;;;;;;1.48;0.70;;;;;;;;;;5094628;28;20020;-57
2021/12/12 11:28:25;;;;;;;2.53;0.90;;;;;;;;;;5097181;28;20428;-57
2021/12/12 11:30:59;;;;;;;2.35;0.90;;;;;;;;;;5098425;28;20020;-58
2021/12/12 11:33:29;;;;;;;1.40;0.50;;;;;;;;;;5095270;28;20028;-55
2021/12/12 11:35:56;;;;;;;1.98;0.80;;;;;;;;;;5104304;28;20024;-59
2021/12/12 11:38:31;;;;;;;2.45;0.95;;;;;;;;;;5093852;28;20115;-57
2021/12/12 11:41:03;;;;;;;0.75;0.40;;;;;;;;;;5095950;28;20070;-58
2021/12/12 11:43:32;;;;;;;2.15;0.50;;;;;;;;;;5096387;28;20028;-57
2021/12/12 11:46:01;;;;;;;0.50;0.32;;;;;;;;;;5096768;28;20082;-58
2021/12/12 11:48:46;;;;;;;0.93;0.38;;;;;;;;;;5096685;28;20108;-58
2021/12/12 11:51:15;;;;;;;1.70;0.70;;;;;;;;;;5096781;28;20051;-58
2021/12/12 11:53:41;;;;;;;;;;;;;;;;;;5093315;28;20024;-58
2021/12/12 11:56:10;;;;;;;1.98;0.40;;;;;;;;;;5094054;28;19904;-58
2021/12/12 11:58:39;;;;;;;1.13;0.45;;;;;;;;;;5096700;28;20028;-58
2021/12/12 12:01:14;;;;;;;7.60;2.33;;;;;;;;;;5093795;28;20059;-58
2021/12/12 12:03:59;;;;;;;2.03;0.70;;;;;;;;;;5096182;28;20031;-58
2021/12/12 12:06:50;;;;;;;9.93;3.80;;;;;;;;;;5096383;28;20070;-57
2021/12/12 12:09:31;;;;;;;5.30;2.05;;;;;;;;;;5096081;28;20046;-58
2021/12/12 12:12:01;;;;;;;5.75;2.70;;;;;;;;;;5102722;28;20106;-59
2021/12/12 12:14:38;;;;;;;6.75;2.58;;;;;;;;;;5104023;28;20032;-57
2021/12/12 12:17:12;;;;;;;1.92;1.13;;;;;;;;;;5099333;28;20077;-56
2021/12/12 12:19:57;;;;;;;1.77;0.80;;;;;;;;;;5104085;28;20512;-58
2021/12/12 12:22:34;;;;;;;0.98;0.50;;;;;;;;;;5103027;28;20488;-52
2021/12/12 12:25:16;;;;;;;3.42;0.90;;;;;;;;;;5101847;28;20012;-57
2021/12/12 12:28:08;;;;;;;1.35;0.75;;;;;;;;;;5105196;28;20020;-55
2021/12/12 12:30:53;;;;;;;5.38;1.85;;;;;;;;;;5096171;28;20028;-54
2021/12/12 12:33:21;;;;;;;22.40;7.50;;;;;;;;;;5096302;28;20035;-56
2021/12/12 12:36:06;;;;;;;4.78;1.58;;;;;;;;;;5097517;28;20052;-56
2021/12/12 12:38:51;;;;;;;2.83;1.08;;;;;;;;;;5095761;28;20431;-55
2021/12/12 12:41:35;;;;;;;2.10;0.77;;;;;;;;;;5111107;28;20099;-57
2021/12/12 12:44:20;;;;;;;37.08;13.35;;;;;;;;;;5098550;28;20028;-56
2021/12/12 12:46:48;;;;;;;14.05;4.78;;;;;;;;;;5112551;28;20032;-55
2021/12/12 12:49:34;;;;;;;19.10;6.57;;;;;;;;;;5101887;28;20074;-56
2021/12/12 12:52:20;;;;;;;23.27;7.93;;;;;;;;;;5100875;28;20114;-58
2021/12/12 12:55:06;;;;;;;19.17;5.82;;;;;;;;;;5100668;28;20032;-58
2021/12/12 12:57:39;;;;;;;12.07;4.68;;;;;;;;;;5098313;28;20032;-58
2021/12/12 13:00:08;;;;;;;5.90;1.90;;;;;;;;;;5098822;28;20028;-57
2021/12/12 13:02:40;;;;;;;9.57;2.95;;;;;;;;;;5094313;28;20035;-58
2021/12/12 13:05:24;;;;;;;11.70;4.00;;;;;;;;;;5093615;28;20067;-59
2021/12/12 13:08:09;;;;;;;5.15;1.80;;;;;;;;;;5097117;28;20048;-58
2021/12/12 13:10:38;;;;;;;12.98;4.07;;;;;;;;;;5099051;28;20036;-57
2021/12/12 13:13:17;;;;;;;10.32;4.00;;;;;;;;;;5099528;28;20024;-56
2021/12/12 13:15:42;;;;;;;11.00;3.55;;;;;;;;;;5098784;28;20031;-57
2021/12/12 13:18:27;;;;;;;12.90;6.07;;;;;;;;;;5107166;28;20043;-58
2021/12/12 13:21:03;;;;;;;15.10;6.60;;;;;;;;;;5096537;28;20043;-58
2021/12/12 13:23:28;;;;;;;15.43;5.53;;;;;;;;;;5092137;28;20031;-57
2021/12/12 13:26:14;;;;;;;12.85;5.35;;;;;;;;;;5104829;28;20027;-58
2021/12/12 13:28:52;;;;;;;13.63;5.68;;;;;;;;;;5098133;28;20053;-57
2021/12/12 13:31:20;;;;;;;10.60;4.43;;;;;;;;;;5097010;28;20024;-57
2021/12/12 13:34:07;;;;;;;10.23;3.67;;;;;;;;;;5098478;28;20027;-65
2021/12/12 13:36:51;;;;;;;12.52;4.07;;;;;;;;;;5088540;28;20040;-59
2021/12/12 13:39:32;;;;;;;13.50;3.88;;;;;;;;;;5098792;28;20048;-59
2021/12/12 13:42:13;;;;;;;8.93;3.85;;;;;;;;;;5097368;28;20024;-58
2021/12/12 13:44:44;;;;;;;9.18;3.70;;;;;;;;;;5092060;28;20101;-59
2021/12/12 13:47:29;;;;;;;24.05;11.50;;;;;;;;;;5101605;28;20427;-59
2021/12/12 13:50:07;;;;;;;22.35;8.98;;;;;;;;;;5097475;28;20023;-58
2021/12/12 13:52:47;;;;;;;16.63;6.38;;;;;;;;;;5093906;28;20108;-58
2021/12/12 13:55:13;;;;;;;11.57;4.22;;;;;;;;;;5097839;28;20024;-57
2021/12/12 13:57:39;;;;;;;10.13;4.50;;;;;;;;;;5095009;28;20021;-57
2021/12/12 14:00:05;;;;;;;11.45;4.78;;;;;;;;;;5097183;28;20019;-56
2021/12/12 14:02:31;;;;;;;14.95;5.93;;;;;;;;;;5098280;28;20039;-58
2021/12/12 14:04:57;;;;;;;13.50;6.38;;;;;;;;;;5092968;28;20378;-58
2021/12/12 14:07:34;;;;;;;10.73;4.43;;;;;;;;;;5097159;28;20055;-58
2021/12/12 14:10:02;;;;;;;12.18;5.43;;;;;;;;;;5097347;28;20031;-56
2021/12/12 14:12:30;;;;;;;34.40;15.00;;;;;;;;;;5096908;28;20069;-56
2021/12/12 14:14:56;;;;;;;18.35;9.07;;;;;;;;;;5092548;28;20337;-56
2021/12/12 14:17:42;;;;;;;14.35;6.35;;;;;;;;;;5109782;28;20027;-59
2021/12/12 14:20:13;;;;;;;8.98;3.35;;;;;;;;;;5108418;28;20050;-59
2021/12/12 14:22:39;;;;;;;10.90;4.68;;;;;;;;;;5096627;28;20036;-60
2021/12/12 14:25:07;;;;;;;11.23;5.65;;;;;;;;;;5095103;28;20055;-58
2021/12/12 14:27:34;;;;;;;12.93;5.63;;;;;;;;;;5097883;28;20028;-59
2021/12/12 14:30:01;;;;;;;28.20;16.65;;;;;;;;;;5095233;28;20109;-59
2021/12/12 14:32:37;;;;;;;22.20;11.15;;;;;;;;;;5100717;28;20036;-59
2021/12/12 14:35:19;;;;;;;17.63;9.13;;;;;;;;;;5097916;28;20016;-58
2021/12/12 14:37:46;;;;;;;14.55;8.02;;;;;;;;;;5107325;28;20042;-59
2021/12/12 14:40:17;;;;;;;13.02;5.97;;;;;;;;;;5102915;28;20458;-58
2021/12/12 14:43:06;;;;;;;13.23;5.43;;;;;;;;;;5094572;28;20028;-58
2021/12/12 14:45:38;;;;;;;15.77;6.47;;;;;;;;;;5088491;28;20453;-58
2021/12/12 14:48:06;;;;;;;18.30;8.77;;;;;;;;;;5105659;28;20066;-58
2021/12/12 14:50:34;;;;;;;30.90;13.15;;;;;;;;;;5099688;28;20039;-60
2021/12/12 14:53:04;;;;;;;25.55;11.85;;;;;;;;;;5096526;28;20555;-59
2021/12/12 14:55:32;;;;;;;22.02;9.77;;;;;;;;;;5096611;28;20105;-58
2021/12/12 14:58:09;;;;;;;14.43;5.78;;;;;;;;;;5097016;28;20044;-58
2021/12/12 15:00:44;;;;;;;11.77;4.75;;;;;;;;;;5096887;28;20077;-58
2021/12/12 15:03:12;;;;;;;108.05;37.22;;;;;;;;;;5101792;28;20028;-58
2021/12/12 15:05:38;;;;;;;127.50;41.22;;;;;;;;;;5091878;28;20405;-58
2021/12/12 15:08:10;;;;;;;81.07;26.85;;;;;;;;;;5100006;28;20066;-59
2021/12/12 15:10:45;;;;;;;26.35;10.50;;;;;;;;;;5100150;28;20024;-58
2021/12/12 15:13:13;;;;;;;28.08;8.95;;;;;;;;;;5101730;28;20028;-58
2021/12/12 15:15:41;;;;;;;17.63;6.95;;;;;;;;;;5097606;28;20853;-58
2021/12/12 15:18:11;;;;;;;12.35;4.55;;;;;;;;;;5101864;28;20027;-59
2021/12/12 15:20:39;;;;;;;20.75;9.13;;;;;;;;;;5092425;28;20023;-58